createdAt,value
2022-10-23T00:03:27.531Z,20.23
2022-10-23T00:08:50.144Z,19.92
2022-10-23T00:14:12.000Z,20.75
2022-10-23T00:19:33.816Z,18.08
2022-10-23T00:24:55.627Z,17.73
2022-10-23T00:30:17.576Z,21.73
2022-10-23T00:35:42.613Z,19.35
2022-10-23T00:41:05.289Z,21.50
2022-10-23T00:46:27.388Z,20.85
2022-10-23T00:51:56.019Z,21.15
2022-10-23T00:57:17.904Z,19.73
2022-10-23T01:02:39.945Z,20.65
2022-10-23T01:08:17.985Z,20.35
2022-10-23T01:13:50.729Z,21.63
2022-10-23T01:19:27.231Z,18.95
2022-10-23T01:24:56.660Z,27.33
2022-10-23T01:30:18.698Z,20.83
2022-10-23T01:35:46.874Z,22.52
2022-10-23T01:41:18.663Z,22.70
2022-10-23T01:46:43.054Z,22.80
2022-10-23T01:52:08.599Z,22.48
2022-10-23T01:57:32.640Z,23.20
2022-10-23T02:02:57.655Z,21.95
2022-10-23T02:08:19.532Z,24.73
2022-10-23T02:14:03.998Z,26.48
2022-10-23T02:19:45.856Z,24.73
2022-10-23T02:25:13.899Z,25.98
2022-10-23T02:30:40.543Z,29.10
2022-10-23T02:41:24.035Z,25.67
2022-10-23T02:47:07.369Z,29.30
2022-10-23T02:52:42.263Z,28.08
2022-10-23T02:58:12.899Z,28.52
2022-10-23T03:03:45.102Z,29.73
2022-10-23T03:09:09.588Z,28.48
2022-10-23T03:14:31.407Z,28.10
2022-10-23T03:19:53.358Z,32.22
2022-10-23T03:25:15.384Z,28.77
2022-10-23T03:30:37.224Z,27.90
2022-10-23T03:35:59.008Z,26.77
2022-10-23T03:41:20.866Z,29.25
2022-10-23T03:46:42.658Z,29.15
2022-10-23T03:52:05.207Z,31.20
2022-10-23T03:57:27.006Z,31.77
2022-10-23T04:02:49.019Z,30.95
2022-10-23T04:08:10.879Z,29.98
2022-10-23T04:13:32.764Z,32.55
2022-10-23T04:18:54.598Z,29.80
2022-10-23T04:24:16.422Z,32.42
2022-10-23T04:29:38.209Z,32.28
2022-10-23T04:35:00.031Z,29.75
2022-10-23T04:40:21.883Z,31.30
2022-10-23T04:45:43.690Z,28.15
2022-10-23T04:51:06.241Z,25.30
2022-10-23T04:56:28.088Z,29.55
2022-10-23T05:01:49.955Z,27.52
2022-10-23T05:07:11.925Z,27.08
2022-10-23T05:12:33.834Z,30.40
2022-10-23T05:18:00.010Z,33.45
2022-10-23T05:23:24.384Z,33.97
2022-10-23T05:28:46.205Z,30.45
2022-10-23T05:34:11.154Z,31.55
2022-10-23T05:39:35.586Z,31.10
2022-10-23T05:44:57.443Z,30.27
2022-10-23T05:50:19.676Z,27.52
2022-10-23T05:55:41.473Z,28.63
2022-10-23T06:01:09.224Z,34.95
2022-10-23T06:06:31.236Z,32.30
2022-10-23T06:11:53.111Z,30.58
2022-10-23T06:17:15.872Z,31.42
2022-10-23T06:22:37.828Z,33.92
2022-10-23T06:27:59.762Z,31.05
2022-10-23T06:33:21.647Z,28.02
2022-10-23T06:38:43.540Z,32.75
2022-10-23T06:44:05.453Z,33.65
2022-10-23T06:49:27.381Z,27.80
2022-10-23T06:54:49.216Z,27.25
2022-10-23T07:00:11.836Z,26.77
2022-10-23T07:05:33.716Z,25.52
2022-10-23T07:10:55.664Z,25.05
2022-10-23T07:16:23.033Z,26.67
2022-10-23T07:21:44.863Z,26.73
2022-10-23T07:27:06.941Z,21.83
2022-10-23T07:32:28.739Z,24.33
2022-10-23T07:37:50.602Z,24.17
2022-10-23T07:43:12.441Z,27.35
2022-10-23T07:48:34.527Z,23.45
2022-10-23T07:53:56.411Z,19.73
2022-10-23T07:59:18.265Z,21.42
2022-10-23T08:04:40.497Z,21.80
2022-10-23T08:10:02.442Z,21.98
2022-10-23T08:15:24.241Z,22.25
2022-10-23T08:20:48.305Z,21.88
2022-10-23T08:26:10.969Z,23.88
2022-10-23T08:31:32.831Z,23.98
2022-10-23T08:36:54.697Z,24.42
2022-10-23T08:42:23.545Z,25.98
2022-10-23T08:47:50.575Z,22.38
2022-10-23T08:53:44.594Z,24.95
2022-10-23T08:59:24.604Z,25.65
2022-10-23T09:04:48.636Z,21.70
2022-10-23T09:11:21.509Z,27.23
2022-10-23T09:17:06.340Z,22.25
2022-10-23T09:22:29.050Z,25.92
2022-10-23T09:27:56.122Z,24.20
2022-10-23T09:33:19.217Z,23.05
2022-10-23T09:38:47.208Z,23.02
2022-10-23T09:44:09.090Z,20.52
2022-10-23T09:49:32.867Z,18.38
2022-10-23T09:54:58.400Z,25.35
2022-10-23T10:00:22.273Z,22.70
2022-10-23T10:05:44.161Z,18.42
2022-10-23T10:11:27.188Z,20.30
2022-10-23T10:17:06.708Z,19.08
2022-10-23T10:22:52.189Z,23.88
2022-10-23T10:28:29.011Z,21.37
2022-10-23T10:34:03.581Z,16.95
2022-10-23T10:39:59.646Z,17.65
2022-10-23T10:45:30.655Z,17.55
2022-10-23T10:50:57.758Z,20.45
2022-10-23T10:56:23.802Z,23.63
2022-10-23T11:01:53.432Z,17.67
2022-10-23T11:07:21.615Z,16.33
2022-10-23T11:12:46.132Z,14.82
2022-10-23T11:18:14.952Z,16.58
2022-10-23T11:29:59.584Z,13.20
2022-10-23T11:35:40.237Z,13.80
2022-10-23T11:41:16.294Z,12.80
2022-10-23T11:46:39.031Z,12.32
2022-10-23T11:52:05.583Z,14.25
2022-10-23T12:02:59.102Z,14.63
2022-10-23T12:08:25.359Z,17.17
2022-10-23T12:13:47.178Z,13.43
2022-10-23T12:19:20.696Z,13.32
2022-10-23T12:24:55.521Z,11.70
2022-10-23T12:30:21.749Z,16.92
2022-10-23T12:36:11.569Z,11.02
2022-10-23T12:41:34.811Z,13.65
2022-10-23T12:46:59.287Z,13.00
2022-10-23T12:52:21.887Z,11.77
2022-10-23T12:57:44.565Z,11.55
2022-10-23T13:03:06.632Z,12.85
2022-10-23T13:08:42.200Z,14.18
2022-10-23T13:14:12.201Z,13.33
2022-10-23T13:19:34.309Z,14.43
2022-10-23T13:24:56.118Z,11.75
2022-10-23T13:30:32.966Z,16.75
2022-10-23T13:36:14.992Z,14.65
2022-10-23T13:41:46.938Z,16.08
2022-10-23T13:47:13.235Z,14.68
2022-10-23T13:52:35.055Z,16.52
2022-10-23T13:57:56.895Z,19.20
2022-10-23T14:03:18.853Z,18.05
2022-10-23T14:08:40.722Z,16.35
2022-10-23T14:14:02.979Z,15.88
2022-10-23T14:19:24.891Z,18.55
2022-10-23T14:24:46.763Z,16.75
2022-10-23T14:30:09.150Z,18.88
2022-10-23T14:35:31.049Z,14.32
2022-10-23T14:40:53.140Z,44.30
2022-10-23T14:46:17.375Z,17.10
2022-10-23T14:51:39.257Z,16.80
2022-10-23T14:57:01.411Z,15.70
2022-10-23T15:02:23.502Z,12.45
2022-10-23T15:07:45.380Z,12.90
2022-10-23T15:13:07.262Z,13.43
2022-10-23T15:18:29.148Z,16.10
2022-10-23T15:23:51.272Z,14.95
2022-10-23T15:29:14.144Z,13.77
2022-10-23T15:34:36.104Z,14.77
2022-10-23T15:40:01.155Z,14.00
2022-10-23T15:45:26.614Z,14.68
2022-10-23T15:50:50.963Z,12.75
2022-10-23T15:56:12.867Z,11.02
2022-10-23T16:01:34.835Z,12.98
2022-10-23T16:06:56.938Z,13.55
2022-10-23T16:12:18.900Z,16.33
2022-10-23T16:17:40.974Z,14.23
2022-10-23T16:23:03.382Z,15.95
2022-10-23T16:28:25.237Z,15.38
2022-10-23T16:33:48.157Z,15.30
2022-10-23T16:39:11.558Z,14.85
2022-10-23T16:44:33.510Z,14.27
2022-10-23T16:49:55.440Z,15.95
2022-10-23T16:55:17.488Z,17.40
2022-10-23T17:00:39.455Z,13.85
2022-10-23T17:06:03.433Z,14.70
2022-10-23T17:16:59.229Z,14.40
2022-10-23T17:22:21.045Z,17.75
2022-10-23T17:27:43.171Z,15.40
2022-10-23T17:33:05.309Z,21.00
2022-10-23T17:38:27.160Z,17.05
2022-10-23T17:43:50.124Z,19.65
2022-10-23T17:49:12.530Z,16.27
2022-10-23T17:54:34.370Z,17.50
2022-10-23T17:59:56.194Z,17.48
2022-10-23T18:05:18.183Z,18.30
2022-10-23T18:10:40.309Z,16.27
2022-10-23T18:16:04.283Z,17.27
2022-10-23T18:21:26.452Z,16.83
2022-10-23T18:26:48.610Z,16.67
2022-10-23T18:32:10.602Z,19.38
2022-10-23T18:37:34.701Z,23.40
2022-10-23T18:43:00.433Z,19.63
2022-10-23T18:48:22.254Z,21.05
2022-10-23T18:53:44.527Z,19.60
2022-10-23T18:59:10.519Z,19.38
2022-10-23T19:04:35.558Z,26.83
2022-10-23T19:09:58.457Z,19.40
2022-10-23T19:15:20.310Z,24.13
2022-10-23T19:20:43.178Z,37.78
2022-10-23T19:26:07.007Z,26.75
2022-10-23T19:31:29.014Z,40.15
2022-10-23T19:36:52.957Z,34.78
2022-10-23T19:42:14.970Z,31.55
2022-10-23T19:47:37.372Z,30.15
2022-10-23T19:52:59.196Z,33.50
2022-10-23T19:58:21.042Z,28.02
2022-10-23T20:03:43.542Z,26.58
2022-10-23T20:09:08.107Z,33.95
2022-10-23T20:14:30.262Z,32.90
2022-10-23T20:19:52.097Z,32.60
2022-10-23T20:25:13.936Z,28.65
2022-10-23T20:30:42.837Z,32.10
2022-10-23T20:36:07.575Z,34.20
2022-10-23T20:41:30.153Z,32.85
2022-10-23T20:46:52.456Z,37.40
2022-10-23T20:52:14.283Z,38.22
2022-10-23T20:57:36.097Z,35.60
2022-10-23T21:02:58.132Z,36.40
2022-10-23T21:08:19.998Z,41.70
2022-10-23T21:13:44.063Z,39.03
2022-10-23T21:19:06.745Z,46.72
2022-10-23T21:24:28.615Z,56.08
2022-10-23T21:29:50.537Z,51.13
2022-10-23T21:35:12.379Z,43.80
2022-10-23T21:40:34.179Z,176.10
2022-10-23T21:45:58.811Z,94.50
2022-10-23T21:51:26.791Z,46.20
2022-10-23T21:56:51.240Z,246.73
2022-10-23T22:02:13.249Z,150.60
2022-10-23T22:07:35.252Z,44.90
2022-10-23T22:12:57.059Z,77.13
2022-10-23T22:18:18.868Z,69.05
2022-10-23T22:23:41.546Z,54.20
2022-10-23T22:29:12.244Z,46.25
2022-10-23T22:34:52.005Z,43.83
2022-10-23T22:40:14.404Z,38.95
2022-10-23T22:45:36.203Z,45.45
2022-10-23T22:50:58.272Z,56.60
2022-10-23T22:56:22.779Z,48.55
2022-10-23T23:01:47.213Z,48.40
2022-10-23T23:07:12.039Z,100.53
2022-10-23T23:12:34.176Z,85.15
2022-10-23T23:17:56.126Z,77.15
2022-10-23T23:23:18.041Z,192.75
2022-10-23T23:28:40.424Z,71.53
2022-10-23T23:34:02.490Z,119.68
2022-10-23T23:39:24.303Z,102.68
2022-10-23T23:44:55.931Z,174.75
2022-10-23T23:50:25.615Z,54.40
2022-10-23T23:55:47.507Z,128.02
